createdAt,value
2018-07-01T00:00:09.209Z,83.27
2018-07-01T00:03:25.283Z,83.60
2018-07-01T00:10:39.865Z,84.17
2018-07-01T00:14:06.654Z,84.77
2018-07-01T00:17:21.483Z,84.78
2018-07-01T00:20:26.113Z,85.33
2018-07-01T00:23:30.740Z,86.09
2018-07-01T00:26:35.368Z,86.05
2018-07-01T00:29:40.044Z,86.11
2018-07-01T00:32:47.952Z,86.36
2018-07-01T00:35:54.280Z,85.97
2018-07-01T00:39:10.734Z,85.80
2018-07-01T00:42:19.889Z,86.57
2018-07-01T00:45:46.016Z,87.94
2018-07-01T00:48:55.164Z,88.52
2018-07-01T00:52:15.630Z,88.63
2018-07-01T00:55:26.889Z,88.81
2018-07-01T00:58:45.552Z,89.37
2018-07-01T01:02:03.228Z,89.17
2018-07-01T01:05:18.014Z,89.33
2018-07-01T01:08:39.235Z,89.45
2018-07-01T01:11:51.980Z,89.45
2018-07-01T01:18:45.937Z,89.62
2018-07-01T01:22:06.179Z,90.29
2018-07-01T01:25:41.644Z,90.85
2018-07-01T01:28:50.168Z,91.29
2018-07-01T01:32:01.433Z,91.54
2018-07-01T01:35:18.611Z,91.16
2018-07-01T01:38:49.877Z,92.19
2018-07-01T01:45:49.413Z,92.85
2018-07-01T01:49:18.941Z,93.42
2018-07-01T01:53:35.699Z,94.33
2018-07-01T01:56:55.604Z,93.82
2018-07-01T02:00:17.890Z,93.47
2018-07-01T02:03:36.044Z,91.92
2018-07-01T02:07:07.819Z,91.78
2018-07-01T02:10:28.792Z,90.63
2018-07-01T02:16:51.369Z,92.07
2018-07-01T02:19:56.002Z,92.18
2018-07-01T02:23:04.664Z,91.96
2018-07-01T02:26:09.229Z,92.05
2018-07-01T02:29:13.852Z,92.32
2018-07-01T02:32:18.329Z,92.68
2018-07-01T02:35:22.896Z,93.82
2018-07-01T02:38:27.486Z,94.11
2018-07-01T02:41:32.060Z,94.36
2018-07-01T02:44:37.461Z,94.45
2018-07-01T02:47:41.988Z,94.53
2018-07-01T02:50:46.497Z,94.14
2018-07-01T02:53:51.025Z,94.53
2018-07-01T02:56:55.546Z,93.66
2018-07-01T03:00:00.077Z,93.91
2018-07-01T03:03:04.616Z,93.99
2018-07-01T03:06:09.116Z,93.82
2018-07-01T03:09:14.495Z,94.06
2018-07-01T03:12:19.116Z,94.08
2018-07-01T03:15:23.733Z,95.10
2018-07-01T03:18:28.342Z,95.78
2018-07-01T03:21:33.102Z,95.43
2018-07-01T03:24:37.829Z,94.69
2018-07-01T03:27:42.517Z,91.55
2018-07-01T03:30:47.281Z,89.09
2018-07-01T03:33:52.062Z,87.65
2018-07-01T03:36:57.073Z,84.80
2018-07-01T03:40:01.647Z,82.97
2018-07-01T03:43:06.424Z,81.85
2018-07-01T03:46:11.005Z,81.08
2018-07-01T03:49:15.772Z,80.49
2018-07-01T03:52:20.335Z,79.99
2018-07-01T03:55:24.858Z,79.19
2018-07-01T03:58:29.407Z,79.05
2018-07-01T04:01:33.952Z,78.02
2018-07-01T04:04:38.578Z,78.35
2018-07-01T04:07:43.101Z,77.95
2018-07-01T04:10:47.593Z,78.43
2018-07-01T04:13:52.320Z,78.88
2018-07-01T04:16:56.743Z,78.99
2018-07-01T04:20:01.279Z,80.05
2018-07-01T04:23:05.803Z,80.92
2018-07-01T04:26:10.408Z,82.34
2018-07-01T04:29:14.965Z,83.76
2018-07-01T04:32:19.493Z,85.68
2018-07-01T04:35:24.000Z,86.82
2018-07-01T04:38:28.530Z,88.10
2018-07-01T04:41:33.044Z,88.92
2018-07-01T04:44:37.652Z,89.88
2018-07-01T04:47:42.119Z,90.71
2018-07-01T04:50:46.633Z,91.20
2018-07-01T04:53:51.266Z,91.24
2018-07-01T04:56:55.808Z,91.09
2018-07-01T05:00:00.278Z,91.34
2018-07-01T05:03:04.869Z,90.52
2018-07-01T05:06:09.453Z,90.64
2018-07-01T05:09:14.724Z,90.62
2018-07-01T05:12:19.195Z,89.99
2018-07-01T05:15:23.788Z,90.25
2018-07-01T05:18:28.353Z,89.17
2018-07-01T05:21:32.888Z,87.25
2018-07-01T05:24:37.403Z,82.06
2018-07-01T05:27:41.959Z,79.21
2018-07-01T05:30:46.617Z,77.53
2018-07-01T05:33:51.169Z,75.58
2018-07-01T05:36:55.803Z,74.27
2018-07-01T05:40:00.313Z,75.31
2018-07-01T05:43:05.051Z,72.98
2018-07-01T05:46:09.590Z,71.75
2018-07-01T05:49:14.173Z,69.59
2018-07-01T05:52:18.628Z,68.80
2018-07-01T05:55:23.158Z,69.24
2018-07-01T05:58:27.715Z,67.41
2018-07-01T06:01:33.280Z,66.91
2018-07-01T06:04:37.975Z,64.98
2018-07-01T06:07:42.499Z,62.33
2018-07-01T06:10:47.050Z,61.94
2018-07-01T06:13:51.641Z,60.84
2018-07-01T06:16:56.378Z,59.81
2018-07-01T06:20:00.895Z,59.13
2018-07-01T06:23:05.856Z,59.75
2018-07-01T06:26:10.593Z,60.69
2018-07-01T06:29:15.106Z,58.40
2018-07-01T06:32:19.584Z,58.28
2018-07-01T06:35:24.261Z,57.33
2018-07-01T06:38:28.946Z,56.90
2018-07-01T06:41:33.470Z,56.33
2018-07-01T06:44:38.009Z,56.58
2018-07-01T06:47:42.539Z,54.93
2018-07-01T06:50:47.116Z,54.22
2018-07-01T06:53:51.834Z,55.56
2018-07-01T06:56:56.612Z,55.17
2018-07-01T07:00:01.121Z,56.58
2018-07-01T07:03:05.861Z,56.07
2018-07-01T07:06:10.397Z,55.63
2018-07-01T07:09:15.472Z,54.10
2018-07-01T07:12:20.061Z,52.94
2018-07-01T07:15:24.544Z,51.46
2018-07-01T07:18:29.098Z,49.42
2018-07-01T07:21:33.637Z,49.90
2018-07-01T07:24:38.343Z,49.95
2018-07-01T07:27:42.862Z,49.15
2018-07-01T07:30:47.419Z,48.00
2018-07-01T07:33:52.123Z,46.44
2018-07-01T07:36:56.752Z,46.16
2018-07-01T07:40:01.344Z,45.32
2018-07-01T07:43:06.266Z,44.95
2018-07-01T07:46:10.980Z,44.57
2018-07-01T07:49:15.816Z,43.38
2018-07-01T07:52:20.582Z,42.57
2018-07-01T07:55:25.472Z,42.81
2018-07-01T07:58:30.244Z,41.67
2018-07-01T08:01:34.829Z,41.11
2018-07-01T08:04:39.596Z,39.05
2018-07-01T08:07:44.220Z,40.22
2018-07-01T08:10:48.760Z,38.78
2018-07-01T08:13:53.726Z,39.00
2018-07-01T08:16:58.617Z,39.51
2018-07-01T08:20:03.581Z,37.77
2018-07-01T08:23:08.280Z,38.26
2018-07-01T08:26:12.832Z,38.29
2018-07-01T08:29:17.526Z,37.63
2018-07-01T08:32:22.123Z,37.49
2018-07-01T08:35:26.754Z,37.43
2018-07-01T08:38:31.312Z,37.56
2018-07-01T08:42:49.167Z,37.01
2018-07-01T08:45:53.982Z,37.81
2018-07-01T08:48:58.717Z,37.29
2018-07-01T08:52:03.535Z,37.08
2018-07-01T08:55:08.106Z,37.93
2018-07-01T08:58:12.945Z,37.24
2018-07-01T09:01:17.831Z,36.94
2018-07-01T09:04:22.596Z,37.27
2018-07-01T09:07:27.175Z,36.39
2018-07-01T09:10:31.820Z,36.64
2018-07-01T09:13:38.824Z,37.08
2018-07-01T09:16:43.452Z,37.28
2018-07-01T09:19:48.135Z,38.40
2018-07-01T09:22:52.705Z,38.37
2018-07-01T09:25:57.492Z,39.35
2018-07-01T09:29:02.248Z,40.16
2018-07-01T09:32:07.002Z,43.44
2018-07-01T09:35:11.658Z,46.01
2018-07-01T09:38:16.280Z,43.25
2018-07-01T09:41:21.168Z,43.68
2018-07-01T09:44:25.953Z,44.26
2018-07-01T09:47:30.740Z,43.84
2018-07-01T09:50:35.442Z,44.48
2018-07-01T09:53:40.384Z,45.03
2018-07-01T09:56:44.934Z,43.96
2018-07-01T09:59:49.504Z,45.08
2018-07-01T10:02:54.063Z,45.45
2018-07-01T10:05:58.660Z,44.34
2018-07-01T10:09:03.437Z,44.12
2018-07-01T10:12:08.273Z,46.53
2018-07-01T10:15:13.024Z,44.48
2018-07-01T10:18:17.488Z,46.27
2018-07-01T10:21:22.469Z,44.65
2018-07-01T10:24:27.243Z,44.31
2018-07-01T10:27:31.989Z,45.30
2018-07-01T10:30:37.045Z,45.10
2018-07-01T10:33:41.767Z,45.16
2018-07-01T10:36:46.409Z,45.62
2018-07-01T10:39:51.013Z,44.38
2018-07-01T10:42:55.677Z,46.50
2018-07-01T10:46:01.152Z,44.84
2018-07-01T10:49:07.190Z,45.03
2018-07-01T10:52:11.835Z,45.60
2018-07-01T10:55:16.761Z,42.79
2018-07-01T10:58:21.434Z,43.33
2018-07-01T11:01:26.162Z,43.37
2018-07-01T11:04:30.789Z,42.99
2018-07-01T11:07:35.421Z,41.65
2018-07-01T11:10:40.252Z,40.66
2018-07-01T11:13:44.962Z,40.11
2018-07-01T11:16:49.618Z,39.59
2018-07-01T11:19:54.442Z,39.67
2018-07-01T11:22:59.103Z,38.82
2018-07-01T11:26:03.696Z,37.65
2018-07-01T11:29:08.342Z,37.62
2018-07-01T11:32:12.924Z,37.05
2018-07-01T11:35:17.745Z,38.48
2018-07-01T11:38:22.367Z,38.46
2018-07-01T11:41:27.130Z,37.23
2018-07-01T11:44:32.362Z,38.43
2018-07-01T11:47:36.935Z,40.21
2018-07-01T11:50:41.636Z,38.47
2018-07-01T11:53:46.346Z,38.43
2018-07-01T11:56:51.063Z,38.76
2018-07-01T11:59:55.573Z,38.89
2018-07-01T12:03:00.207Z,39.36
2018-07-01T12:06:04.925Z,39.29
2018-07-01T12:09:10.161Z,38.54
2018-07-01T12:12:14.770Z,40.04
2018-07-01T12:15:19.597Z,37.13
2018-07-01T12:18:24.231Z,37.77
2018-07-01T12:21:29.001Z,37.85
2018-07-01T12:24:33.879Z,36.29
2018-07-01T12:27:38.438Z,38.34
2018-07-01T12:30:43.030Z,36.66
2018-07-01T12:33:47.873Z,38.02
2018-07-01T12:36:52.538Z,39.41
2018-07-01T12:39:57.566Z,38.67
2018-07-01T12:43:02.483Z,39.53
2018-07-01T12:46:07.546Z,38.40
2018-07-01T12:49:12.404Z,38.02
2018-07-01T12:52:17.878Z,38.03
2018-07-01T12:55:22.578Z,38.87
2018-07-01T12:58:27.211Z,39.41
2018-07-01T13:01:31.972Z,37.32
2018-07-01T13:04:36.625Z,36.87
2018-07-01T13:07:42.080Z,36.23
2018-07-01T13:10:46.695Z,37.40
2018-07-01T13:13:51.471Z,37.32
2018-07-01T13:16:56.152Z,37.52
2018-07-01T13:20:00.890Z,37.02
2018-07-01T13:23:05.425Z,36.30
2018-07-01T13:26:10.124Z,35.82
2018-07-01T13:29:14.686Z,36.38
2018-07-01T13:32:19.333Z,36.09
2018-07-01T13:35:24.081Z,36.67
2018-07-01T13:38:32.720Z,36.66
2018-07-01T13:41:37.399Z,36.03
2018-07-01T13:44:42.089Z,36.41
2018-07-01T13:47:46.868Z,37.39
2018-07-01T13:50:51.487Z,36.59
2018-07-01T13:53:57.512Z,34.87
2018-07-01T13:57:02.103Z,35.42
2018-07-01T14:00:08.378Z,35.30
2018-07-01T14:03:13.071Z,36.05
2018-07-01T14:06:17.974Z,34.71
2018-07-01T14:09:22.978Z,35.16
2018-07-01T14:12:27.501Z,34.86
2018-07-01T14:15:32.336Z,34.89
2018-07-01T14:18:37.358Z,34.35
2018-07-01T14:21:42.131Z,35.09
2018-07-01T14:24:46.793Z,33.99
2018-07-01T14:27:51.312Z,34.58
2018-07-01T14:30:55.932Z,35.33
2018-07-01T14:34:00.768Z,35.00
2018-07-01T14:37:05.630Z,34.94
2018-07-01T14:40:10.289Z,33.82
2018-07-01T14:43:15.085Z,34.76
2018-07-01T14:46:19.739Z,34.60
2018-07-01T14:49:24.522Z,33.79
2018-07-01T14:52:29.173Z,34.05
2018-07-01T14:55:34.917Z,34.10
2018-07-01T14:58:39.649Z,35.28
2018-07-01T15:01:44.421Z,35.48
2018-07-01T15:04:49.064Z,33.64
2018-07-01T15:07:54.068Z,34.10
2018-07-01T15:10:58.723Z,34.04
2018-07-01T15:14:03.708Z,33.44
2018-07-01T15:17:08.461Z,32.79
2018-07-01T15:20:12.983Z,30.87
2018-07-01T15:23:17.276Z,30.92
2018-07-01T15:26:21.837Z,30.58
2018-07-01T15:29:26.653Z,31.78
2018-07-01T15:32:31.053Z,30.88
2018-07-01T15:35:35.682Z,31.25
2018-07-01T15:38:40.272Z,29.38
2018-07-01T15:41:44.904Z,30.60
2018-07-01T15:44:49.440Z,30.41
2018-07-01T15:47:53.970Z,29.62
2018-07-01T15:50:58.626Z,29.38
2018-07-01T15:54:03.368Z,29.58
2018-07-01T15:57:07.935Z,29.15
2018-07-01T16:00:12.452Z,29.60
2018-07-01T16:03:16.990Z,29.82
2018-07-01T16:06:21.732Z,28.91
2018-07-01T16:09:26.338Z,28.86
2018-07-01T16:12:31.127Z,29.51
2018-07-01T16:15:35.673Z,30.24
2018-07-01T16:18:40.284Z,28.90
2018-07-01T16:21:44.864Z,29.69
2018-07-01T16:24:54.567Z,27.67
2018-07-01T16:28:04.344Z,28.60
2018-07-01T16:31:08.869Z,28.91
2018-07-01T16:34:13.521Z,28.53
2018-07-01T16:37:18.144Z,28.65
2018-07-01T16:40:22.722Z,29.03
2018-07-01T16:43:27.368Z,28.41
2018-07-01T16:46:31.948Z,28.70
2018-07-01T16:49:36.614Z,29.01
2018-07-01T16:52:41.180Z,28.61
2018-07-01T16:55:45.640Z,28.30
2018-07-01T16:58:50.278Z,28.25
2018-07-01T17:01:54.701Z,27.52
2018-07-01T17:04:59.309Z,26.67
2018-07-01T17:08:03.873Z,26.44
2018-07-01T17:11:08.402Z,27.02
2018-07-01T17:14:12.891Z,26.75
2018-07-01T17:17:17.366Z,28.40
2018-07-01T17:20:22.001Z,28.71
2018-07-01T17:23:26.673Z,31.77
2018-07-01T17:26:31.280Z,32.69
2018-07-01T17:29:35.828Z,34.42
2018-07-01T17:32:45.516Z,35.65
2018-07-01T17:35:49.970Z,36.45
2018-07-01T17:38:54.544Z,36.04
2018-07-01T17:41:59.397Z,37.59
2018-07-01T17:45:04.206Z,37.36
2018-07-01T17:48:08.729Z,38.43
2018-07-01T17:51:13.282Z,39.14
2018-07-01T17:54:17.908Z,38.37
2018-07-01T17:57:22.490Z,39.61
2018-07-01T18:00:27.156Z,39.13
2018-07-01T18:03:31.846Z,39.68
2018-07-01T18:06:36.412Z,39.41
2018-07-01T18:09:41.048Z,40.03
2018-07-01T18:12:45.462Z,40.37
2018-07-01T18:15:49.968Z,40.82
2018-07-01T18:18:54.458Z,39.83
2018-07-01T18:22:27.956Z,41.25
2018-07-01T18:25:09.842Z,41.29
2018-07-01T18:28:18.878Z,41.92
2018-07-01T18:31:12.760Z,42.28
2018-07-01T18:34:17.281Z,42.26
2018-07-01T18:37:21.842Z,43.00
2018-07-01T18:40:26.342Z,42.21
2018-07-01T18:43:30.973Z,43.00
2018-07-01T18:46:35.497Z,43.38
2018-07-01T18:49:40.022Z,42.70
2018-07-01T18:52:44.560Z,43.60
2018-07-01T18:55:49.262Z,44.13
2018-07-01T18:58:54.233Z,45.43
2018-07-01T19:01:58.830Z,44.93
2018-07-01T19:05:06.485Z,46.17
2018-07-01T19:08:11.154Z,46.34
2018-07-01T19:11:15.767Z,47.55
2018-07-01T19:14:20.330Z,48.43
2018-07-01T19:17:24.800Z,50.04
2018-07-01T19:20:29.325Z,50.68
2018-07-01T19:23:33.876Z,52.35
2018-07-01T19:26:38.537Z,52.92
2018-07-01T19:29:43.252Z,52.44
2018-07-01T19:32:47.857Z,52.22
2018-07-01T19:35:52.391Z,53.12
2018-07-01T19:38:57.013Z,55.12
2018-07-01T19:42:01.586Z,56.47
2018-07-01T19:45:06.901Z,57.29
2018-07-01T19:48:11.545Z,57.75
2018-07-01T19:51:16.115Z,57.84
2018-07-01T19:54:20.641Z,59.19
2018-07-01T19:57:25.379Z,60.28
2018-07-01T20:00:30.045Z,61.35
2018-07-01T20:03:34.606Z,60.93
2018-07-01T20:06:39.277Z,60.82
2018-07-01T20:09:43.972Z,61.32
2018-07-01T20:12:48.705Z,61.95
2018-07-01T20:15:53.387Z,62.60
2018-07-01T20:18:58.019Z,63.32
2018-07-01T20:22:02.623Z,63.19
2018-07-01T20:25:07.802Z,63.98
2018-07-01T20:28:12.711Z,64.37
2018-07-01T20:31:17.459Z,64.00
2018-07-01T20:34:22.127Z,64.21
2018-07-01T20:37:26.698Z,63.47
2018-07-01T20:40:31.003Z,64.61
2018-07-01T20:43:35.770Z,64.61
2018-07-01T20:46:40.578Z,62.76
2018-07-01T20:49:45.232Z,62.45
2018-07-01T20:52:50.071Z,63.71
2018-07-01T20:55:54.625Z,63.46
2018-07-01T20:58:59.184Z,63.94
2018-07-01T21:02:03.802Z,64.54
2018-07-01T21:05:08.355Z,65.41
2018-07-01T21:08:12.996Z,65.52
2018-07-01T21:11:17.748Z,65.99
2018-07-01T21:14:22.413Z,66.40
2018-07-01T21:17:27.152Z,67.15
2018-07-01T21:20:31.759Z,66.63
2018-07-01T21:23:36.166Z,66.19
2018-07-01T21:26:40.646Z,66.43
2018-07-01T21:29:45.128Z,68.20
2018-07-01T21:32:49.544Z,68.32
2018-07-01T21:35:54.026Z,67.57
2018-07-01T21:38:58.389Z,68.36
2018-07-01T21:42:02.775Z,68.91
2018-07-01T21:45:08.278Z,69.68
2018-07-01T21:48:12.882Z,70.45
2018-07-01T21:51:17.373Z,71.03
2018-07-01T21:54:21.892Z,72.28
2018-07-01T21:57:26.554Z,73.22
2018-07-01T22:00:33.211Z,73.45
2018-07-01T22:03:37.739Z,73.20
2018-07-01T22:06:47.468Z,74.27
2018-07-01T22:09:51.856Z,74.86
2018-07-01T22:12:56.438Z,75.31
2018-07-01T22:16:09.285Z,75.21
2018-07-01T22:19:14.552Z,76.16
2018-07-01T22:22:18.998Z,76.76
2018-07-01T22:25:25.015Z,77.87
2018-07-01T22:28:30.375Z,77.95
2018-07-01T22:31:35.284Z,78.21
2018-07-01T22:34:39.956Z,78.83
2018-07-01T22:37:44.410Z,79.40
2018-07-01T22:40:48.909Z,80.01
2018-07-01T22:43:53.332Z,80.14
2018-07-01T22:46:59.305Z,80.83
2018-07-01T22:50:03.980Z,81.20
2018-07-01T22:53:08.537Z,81.89
2018-07-01T22:56:12.957Z,82.31
2018-07-01T22:59:18.729Z,81.35
2018-07-01T23:03:10.684Z,79.78
2018-07-01T23:06:16.642Z,78.66
2018-07-01T23:09:22.473Z,79.26
2018-07-01T23:12:28.332Z,80.04
2018-07-01T23:15:34.569Z,80.87
2018-07-01T23:18:40.634Z,81.17
2018-07-01T23:21:45.057Z,82.80
2018-07-01T23:24:49.633Z,84.70
2018-07-01T23:27:54.070Z,85.59
2018-07-01T23:30:58.439Z,86.58
2018-07-01T23:34:02.863Z,86.93
2018-07-01T23:37:07.302Z,87.43
2018-07-01T23:40:12.315Z,86.76
2018-07-01T23:43:16.736Z,86.65
2018-07-01T23:46:21.409Z,87.60
2018-07-01T23:49:25.900Z,87.82
2018-07-01T23:52:30.395Z,88.20
2018-07-01T23:55:34.832Z,88.13
2018-07-01T23:58:39.245Z,88.04
